Terminal Aerodrome Forecast
Issued by NWS Tampa Bay Area, FL

Home | Current Version | Previous Version | Text Only | Print | Product List | Glossary On
Versions: 1 2 3 4 5 6 7 8 9 10 11 12 13
726
FTUS42 KTBW 300135 AAA
TAFSRQ
TAF AMD
KSRQ 300135Z 3002/3024 11007KT P6SM VCTS SCT020CB SCT100 BKN250
      TEMPO 3002/3003 BKN020CB
     FM300400 VRB03KT P6SM FEW100 SCT250
     FM301400 24004KT P6SM SCT020 SCT250
     FM301600 26008KT P6SM VCTS SCT035CB SCT250
     FM302000 28010KT P6SM SCT040 SCT100 BKN250=

USA.gov is the U.S. government's official web portal to all federal, state and local government web resources and services.